sensor_id;sensor_type;location;lat;lon;timestamp;P1;durP1;ratioP1;P2;durP2;ratioP2
80910;SDS011;70359;51.420;7.032;2023-11-19T00:00:34;1.9;;;1.5;;
80910;SDS011;70359;51.420;7.032;2023-11-19T00:02:59;1.9;;;1.5;;
80910;SDS011;70359;51.420;7.032;2023-11-19T00:05:24;1.7;;;1.6;;
80910;SDS011;70359;51.420;7.032;2023-11-19T00:07:49;1.7;;;1.6;;
80910;SDS011;70359;51.420;7.032;2023-11-19T00:10:15;1.9;;;1.6;;
80910;SDS011;70359;51.420;7.032;2023-11-19T00:12:42;1.9;;;1.6;;
80910;SDS011;70359;51.420;7.032;2023-11-19T00:15:05;1.9;;;1.8;;
80910;SDS011;70359;51.420;7.032;2023-11-19T00:17:29;1.9;;;1.8;;
80910;SDS011;70359;51.420;7.032;2023-11-19T00:19:54;2.3;;;1.7;;
80910;SDS011;70359;51.420;7.032;2023-11-19T00:22:19;2.3;;;1.7;;
80910;SDS011;70359;51.420;7.032;2023-11-19T00:24:48;1.9;;;1.8;;
80910;SDS011;70359;51.420;7.032;2023-11-19T00:27:09;1.9;;;1.8;;
80910;SDS011;70359;51.420;7.032;2023-11-19T00:29:34;1.9;;;1.8;;
80910;SDS011;70359;51.420;7.032;2023-11-19T00:31:59;1.9;;;1.8;;
80910;SDS011;70359;51.420;7.032;2023-11-19T00:34:24;2.1;;;1.9;;
80910;SDS011;70359;51.420;7.032;2023-11-19T00:36:49;2.1;;;1.9;;
80910;SDS011;70359;51.420;7.032;2023-11-19T00:39:14;1.7;;;1.6;;
80910;SDS011;70359;51.420;7.032;2023-11-19T00:41:39;1.7;;;1.6;;
80910;SDS011;70359;51.420;7.032;2023-11-19T00:44:04;1.8;;;1.7;;
80910;SDS011;70359;51.420;7.032;2023-11-19T00:46:29;1.8;;;1.7;;
80910;SDS011;70359;51.420;7.032;2023-11-19T00:48:54;1.8;;;1.7;;
80910;SDS011;70359;51.420;7.032;2023-11-19T00:51:19;1.8;;;1.7;;
80910;SDS011;70359;51.420;7.032;2023-11-19T00:53:44;2.4;;;2.2;;
80910;SDS011;70359;51.420;7.032;2023-11-19T00:56:10;2.4;;;2.2;;
80910;SDS011;70359;51.420;7.032;2023-11-19T00:58:34;1.7;;;1.6;;
80910;SDS011;70359;51.420;7.032;2023-11-19T01:01:03;1.7;;;1.6;;
80910;SDS011;70359;51.420;7.032;2023-11-19T01:03:24;1.7;;;1.6;;
80910;SDS011;70359;51.420;7.032;2023-11-19T01:05:49;2;;;1.9;;
80910;SDS011;70359;51.420;7.032;2023-11-19T01:08:14;2;;;1.9;;
80910;SDS011;70359;51.420;7.032;2023-11-19T01:10:44;2.4;;;2;;
80910;SDS011;70359;51.420;7.032;2023-11-19T01:13:08;2.4;;;2;;
80910;SDS011;70359;51.420;7.032;2023-11-19T01:15:29;2.1;;;1.9;;
80910;SDS011;70359;51.420;7.032;2023-11-19T01:17:58;2.1;;;1.9;;
80910;SDS011;70359;51.420;7.032;2023-11-19T01:20:23;1.7;;;1.6;;
80910;SDS011;70359;51.420;7.032;2023-11-19T01:22:44;1.7;;;1.6;;
80910;SDS011;70359;51.420;7.032;2023-11-19T01:25:10;1.6;;;1.5;;
80910;SDS011;70359;51.420;7.032;2023-11-19T01:27:34;1.6;;;1.5;;
80910;SDS011;70359;51.420;7.032;2023-11-19T01:30:04;1.7;;;1.5;;
80910;SDS011;70359;51.420;7.032;2023-11-19T01:32:24;1.7;;;1.5;;
80910;SDS011;70359;51.420;7.032;2023-11-19T01:34:49;1.5;;;1.4;;
80910;SDS011;70359;51.420;7.032;2023-11-19T01:37:18;1.5;;;1.4;;
80910;SDS011;70359;51.420;7.032;2023-11-19T01:39:39;1.3;;;1.2;;
80910;SDS011;70359;51.420;7.032;2023-11-19T01:42:05;1.3;;;1.2;;
80910;SDS011;70359;51.420;7.032;2023-11-19T01:44:29;1.5;;;1.4;;
80910;SDS011;70359;51.420;7.032;2023-11-19T01:46:54;1.5;;;1.4;;
80910;SDS011;70359;51.420;7.032;2023-11-19T01:49:19;2.2;;;1.3;;
80910;SDS011;70359;51.420;7.032;2023-11-19T01:51:49;2.2;;;1.3;;
80910;SDS011;70359;51.420;7.032;2023-11-19T01:54:10;1.2;;;1.1;;
80910;SDS011;70359;51.420;7.032;2023-11-19T01:56:39;1.2;;;1.1;;
80910;SDS011;70359;51.420;7.032;2023-11-19T01:59:00;1.3;;;1.2;;
80910;SDS011;70359;51.420;7.032;2023-11-19T02:01:28;1.3;;;1.2;;
80910;SDS011;70359;51.420;7.032;2023-11-19T02:03:52;1.3;;;1.2;;
80910;SDS011;70359;51.420;7.032;2023-11-19T02:06:14;1.3;;;1.2;;
80910;SDS011;70359;51.420;7.032;2023-11-19T02:08:39;1.4;;;1.3;;
80910;SDS011;70359;51.420;7.032;2023-11-19T02:11:05;1.4;;;1.3;;
80910;SDS011;70359;51.420;7.032;2023-11-19T02:13:29;1.4;;;1.3;;
80910;SDS011;70359;51.420;7.032;2023-11-19T02:15:54;1.5;;;1.2;;
80910;SDS011;70359;51.420;7.032;2023-11-19T02:18:24;1.5;;;1.2;;
80910;SDS011;70359;51.420;7.032;2023-11-19T02:20:44;1.3;;;1.2;;
80910;SDS011;70359;51.420;7.032;2023-11-19T02:23:09;1.3;;;1.2;;
80910;SDS011;70359;51.420;7.032;2023-11-19T02:25:39;3;;;1.1;;
80910;SDS011;70359;51.420;7.032;2023-11-19T02:28:00;3;;;1.1;;
80910;SDS011;70359;51.420;7.032;2023-11-19T02:30:25;1.1;;;1;;
80910;SDS011;70359;51.420;7.032;2023-11-19T02:32:53;1.1;;;1;;
80910;SDS011;70359;51.420;7.032;2023-11-19T02:35:18;1.1;;;0.9;;
80910;SDS011;70359;51.420;7.032;2023-11-19T02:37:39;1.1;;;0.9;;
80910;SDS011;70359;51.420;7.032;2023-11-19T02:40:09;1.6;;;1.1;;
80910;SDS011;70359;51.420;7.032;2023-11-19T02:42:29;1.6;;;1.1;;
80910;SDS011;70359;51.420;7.032;2023-11-19T02:44:54;1.7;;;1.2;;
80910;SDS011;70359;51.420;7.032;2023-11-19T02:47:23;1.7;;;1.2;;
80910;SDS011;70359;51.420;7.032;2023-11-19T02:49:44;0.8;;;0.8;;
80910;SDS011;70359;51.420;7.032;2023-11-19T02:52:14;0.8;;;0.8;;
80910;SDS011;70359;51.420;7.032;2023-11-19T02:54:34;0.7;;;0.7;;
80910;SDS011;70359;51.420;7.032;2023-11-19T02:57:00;0.7;;;0.7;;
80910;SDS011;70359;51.420;7.032;2023-11-19T02:59:29;0.7;;;0.7;;
80910;SDS011;70359;51.420;7.032;2023-11-19T03:01:49;0.7;;;0.7;;
80910;SDS011;70359;51.420;7.032;2023-11-19T03:04:18;1.2;;;0.9;;
80910;SDS011;70359;51.420;7.032;2023-11-19T03:06:39;1.2;;;0.9;;
80910;SDS011;70359;51.420;7.032;2023-11-19T03:09:05;2.6;;;1.2;;
80910;SDS011;70359;51.420;7.032;2023-11-19T03:11:29;2.6;;;1.2;;
80910;SDS011;70359;51.420;7.032;2023-11-19T03:13:54;1.6;;;1.4;;
80910;SDS011;70359;51.420;7.032;2023-11-19T03:16:19;1.6;;;1.4;;
80910;SDS011;70359;51.420;7.032;2023-11-19T03:18:48;1.6;;;1.1;;
80910;SDS011;70359;51.420;7.032;2023-11-19T03:21:10;1.6;;;1.1;;
80910;SDS011;70359;51.420;7.032;2023-11-19T03:23:36;2.1;;;1.2;;
80910;SDS011;70359;51.420;7.032;2023-11-19T03:25:59;2.1;;;1.2;;
80910;SDS011;70359;51.420;7.032;2023-11-19T03:28:25;2.1;;;1.2;;
80910;SDS011;70359;51.420;7.032;2023-11-19T03:30:50;1.7;;;1.3;;
80910;SDS011;70359;51.420;7.032;2023-11-19T03:33:15;1.7;;;1.3;;
80910;SDS011;70359;51.420;7.032;2023-11-19T03:35:43;1.3;;;1.2;;
80910;SDS011;70359;51.420;7.032;2023-11-19T03:38:09;1.3;;;1.2;;
80910;SDS011;70359;51.420;7.032;2023-11-19T03:40:30;2.1;;;1.2;;
80910;SDS011;70359;51.420;7.032;2023-11-19T03:42:55;2.1;;;1.2;;
80910;SDS011;70359;51.420;7.032;2023-11-19T03:45:24;1.7;;;1.3;;
80910;SDS011;70359;51.420;7.032;2023-11-19T03:47:45;1.7;;;1.3;;
80910;SDS011;70359;51.420;7.032;2023-11-19T03:50:10;2.7;;;1.6;;
80910;SDS011;70359;51.420;7.032;2023-11-19T03:52:35;2.7;;;1.6;;
80910;SDS011;70359;51.420;7.032;2023-11-19T03:55:00;1.5;;;1.3;;
80910;SDS011;70359;51.420;7.032;2023-11-19T03:57:25;1.5;;;1.3;;
80910;SDS011;70359;51.420;7.032;2023-11-19T03:59:50;2.8;;;1.7;;
80910;SDS011;70359;51.420;7.032;2023-11-19T04:02:15;2.8;;;1.7;;
80910;SDS011;70359;51.420;7.032;2023-11-19T04:04:40;2.8;;;1.6;;
80910;SDS011;70359;51.420;7.032;2023-11-19T04:07:05;2.8;;;1.6;;
80910;SDS011;70359;51.420;7.032;2023-11-19T04:09:30;2.4;;;1.3;;
80910;SDS011;70359;51.420;7.032;2023-11-19T04:11:55;2.4;;;1.3;;
80910;SDS011;70359;51.420;7.032;2023-11-19T04:14:20;1.5;;;1.1;;
80910;SDS011;70359;51.420;7.032;2023-11-19T04:16:45;1.5;;;1.1;;
80910;SDS011;70359;51.420;7.032;2023-11-19T04:19:10;4.5;;;1.8;;
80910;SDS011;70359;51.420;7.032;2023-11-19T04:21:35;4.5;;;1.8;;
80910;SDS011;70359;51.420;7.032;2023-11-19T04:24:00;3.9;;;1.4;;
80910;SDS011;70359;51.420;7.032;2023-11-19T04:26:25;3.9;;;1.4;;
80910;SDS011;70359;51.420;7.032;2023-11-19T04:28:50;7;;;1.6;;
80910;SDS011;70359;51.420;7.032;2023-11-19T04:31:19;7;;;1.6;;
80910;SDS011;70359;51.420;7.032;2023-11-19T04:33:40;7.3;;;1.7;;
80910;SDS011;70359;51.420;7.032;2023-11-19T04:36:05;7.3;;;1.7;;
80910;SDS011;70359;51.420;7.032;2023-11-19T04:38:30;7.3;;;1.7;;
80910;SDS011;70359;51.420;7.032;2023-11-19T04:40:55;4.3;;;1.5;;
80910;SDS011;70359;51.420;7.032;2023-11-19T04:43:20;4.3;;;1.5;;
80910;SDS011;70359;51.420;7.032;2023-11-19T04:45:45;3.9;;;1.6;;
80910;SDS011;70359;51.420;7.032;2023-11-19T04:48:10;3.9;;;1.6;;
80910;SDS011;70359;51.420;7.032;2023-11-19T04:50:35;14.6;;;1.5;;
80910;SDS011;70359;51.420;7.032;2023-11-19T04:53:00;14.6;;;1.5;;
80910;SDS011;70359;51.420;7.032;2023-11-19T04:55:25;2.2;;;1.5;;
80910;SDS011;70359;51.420;7.032;2023-11-19T04:57:54;2.2;;;1.5;;
80910;SDS011;70359;51.420;7.032;2023-11-19T05:00:15;2.9;;;1.5;;
80910;SDS011;70359;51.420;7.032;2023-11-19T05:02:40;2.9;;;1.5;;
80910;SDS011;70359;51.420;7.032;2023-11-19T05:05:05;4.6;;;2.2;;
80910;SDS011;70359;51.420;7.032;2023-11-19T05:07:30;4.6;;;2.2;;
80910;SDS011;70359;51.420;7.032;2023-11-19T05:09:55;4.1;;;1.8;;
80910;SDS011;70359;51.420;7.032;2023-11-19T05:12:20;4.1;;;1.8;;
80910;SDS011;70359;51.420;7.032;2023-11-19T05:14:45;6.6;;;1.6;;
80910;SDS011;70359;51.420;7.032;2023-11-19T05:17:10;6.6;;;1.6;;
80910;SDS011;70359;51.420;7.032;2023-11-19T05:19:39;5.3;;;1.8;;
80910;SDS011;70359;51.420;7.032;2023-11-19T05:22:00;5.3;;;1.8;;
80910;SDS011;70359;51.420;7.032;2023-11-19T05:24:29;5.6;;;1.9;;
80910;SDS011;70359;51.420;7.032;2023-11-19T05:26:51;5.6;;;1.9;;
80910;SDS011;70359;51.420;7.032;2023-11-19T05:29:15;6.2;;;1.8;;
80910;SDS011;70359;51.420;7.032;2023-11-19T05:31:44;6.2;;;1.8;;
80910;SDS011;70359;51.420;7.032;2023-11-19T05:34:05;3.4;;;1.7;;
80910;SDS011;70359;51.420;7.032;2023-11-19T05:36:34;3.4;;;1.7;;
80910;SDS011;70359;51.420;7.032;2023-11-19T05:38:55;4.9;;;1.9;;
80910;SDS011;70359;51.420;7.032;2023-11-19T05:41:20;4.9;;;1.9;;
80910;SDS011;70359;51.420;7.032;2023-11-19T05:43:45;3.1;;;1.7;;
80910;SDS011;70359;51.420;7.032;2023-11-19T05:46:10;3.1;;;1.7;;
80910;SDS011;70359;51.420;7.032;2023-11-19T05:48:35;3.1;;;1.7;;
80910;SDS011;70359;51.420;7.032;2023-11-19T05:51:04;2.6;;;1.6;;
80910;SDS011;70359;51.420;7.032;2023-11-19T05:53:25;2.6;;;1.6;;
80910;SDS011;70359;51.420;7.032;2023-11-19T05:55:50;3.6;;;1.9;;
80910;SDS011;70359;51.420;7.032;2023-11-19T05:58:15;3.6;;;1.9;;
80910;SDS011;70359;51.420;7.032;2023-11-19T06:00:40;4.9;;;2;;
80910;SDS011;70359;51.420;7.032;2023-11-19T06:03:05;4.9;;;2;;
80910;SDS011;70359;51.420;7.032;2023-11-19T06:05:30;4.6;;;2.1;;
80910;SDS011;70359;51.420;7.032;2023-11-19T06:07:55;4.6;;;2.1;;
80910;SDS011;70359;51.420;7.032;2023-11-19T06:10:20;3.1;;;1.5;;
80910;SDS011;70359;51.420;7.032;2023-11-19T06:12:45;3.1;;;1.5;;
80910;SDS011;70359;51.420;7.032;2023-11-19T06:15:10;13.1;;;2.4;;
80910;SDS011;70359;51.420;7.032;2023-11-19T06:17:35;13.1;;;2.4;;
80910;SDS011;70359;51.420;7.032;2023-11-19T06:20:00;7.8;;;2.1;;
80910;SDS011;70359;51.420;7.032;2023-11-19T06:22:25;7.8;;;2.1;;
80910;SDS011;70359;51.420;7.032;2023-11-19T06:24:50;5.6;;;1.6;;
80910;SDS011;70359;51.420;7.032;2023-11-19T06:27:19;5.6;;;1.6;;
80910;SDS011;70359;51.420;7.032;2023-11-19T06:29:40;4.9;;;1.8;;
80910;SDS011;70359;51.420;7.032;2023-11-19T06:32:05;4.9;;;1.8;;
80910;SDS011;70359;51.420;7.032;2023-11-19T06:34:30;7.9;;;1.9;;
80910;SDS011;70359;51.420;7.032;2023-11-19T06:36:55;7.9;;;1.9;;
80910;SDS011;70359;51.420;7.032;2023-11-19T06:39:20;8.8;;;1.9;;
80910;SDS011;70359;51.420;7.032;2023-11-19T06:41:48;8.8;;;1.9;;
80910;SDS011;70359;51.420;7.032;2023-11-19T06:44:10;3.8;;;1.9;;
80910;SDS011;70359;51.420;7.032;2023-11-19T06:46:39;3.8;;;1.9;;
80910;SDS011;70359;51.420;7.032;2023-11-19T06:49:00;10.3;;;2.4;;
80910;SDS011;70359;51.420;7.032;2023-11-19T06:51:25;10.3;;;2.4;;
80910;SDS011;70359;51.420;7.032;2023-11-19T06:53:50;5;;;1.9;;
80910;SDS011;70359;51.420;7.032;2023-11-19T06:56:22;5;;;1.9;;
80910;SDS011;70359;51.420;7.032;2023-11-19T06:58:42;3.2;;;1.8;;
80910;SDS011;70359;51.420;7.032;2023-11-19T07:01:10;3.2;;;1.8;;
80910;SDS011;70359;51.420;7.032;2023-11-19T07:03:34;3.2;;;1.8;;
80910;SDS011;70359;51.420;7.032;2023-11-19T07:05:55;3.8;;;1.9;;
80910;SDS011;70359;51.420;7.032;2023-11-19T07:08:20;3.8;;;1.9;;
80910;SDS011;70359;51.420;7.032;2023-11-19T07:10:45;5;;;1.9;;
80910;SDS011;70359;51.420;7.032;2023-11-19T07:13:10;5;;;1.9;;
80910;SDS011;70359;51.420;7.032;2023-11-19T07:15:35;4.7;;;2;;
80910;SDS011;70359;51.420;7.032;2023-11-19T07:18:02;4.7;;;2;;
80910;SDS011;70359;51.420;7.032;2023-11-19T07:20:25;11.5;;;2;;
80910;SDS011;70359;51.420;7.032;2023-11-19T07:22:50;11.5;;;2;;
80910;SDS011;70359;51.420;7.032;2023-11-19T07:25:16;3.1;;;1.9;;
80910;SDS011;70359;51.420;7.032;2023-11-19T07:27:40;3.1;;;1.9;;
80910;SDS011;70359;51.420;7.032;2023-11-19T07:30:06;6;;;2.1;;
80910;SDS011;70359;51.420;7.032;2023-11-19T07:32:30;6;;;2.1;;
80910;SDS011;70359;51.420;7.032;2023-11-19T07:34:55;11.7;;;2.2;;
80910;SDS011;70359;51.420;7.032;2023-11-19T07:37:20;11.7;;;2.2;;
80910;SDS011;70359;51.420;7.032;2023-11-19T07:39:45;3.6;;;1.8;;
80910;SDS011;70359;51.420;7.032;2023-11-19T07:42:10;3.6;;;1.8;;
80910;SDS011;70359;51.420;7.032;2023-11-19T07:44:35;4.9;;;1.6;;
80910;SDS011;70359;51.420;7.032;2023-11-19T07:47:00;4.9;;;1.6;;
80910;SDS011;70359;51.420;7.032;2023-11-19T07:49:25;2.3;;;1.6;;
80910;SDS011;70359;51.420;7.032;2023-11-19T07:51:50;2.3;;;1.6;;
80910;SDS011;70359;51.420;7.032;2023-11-19T07:54:19;7.1;;;1.5;;
80910;SDS011;70359;51.420;7.032;2023-11-19T07:56:40;7.1;;;1.5;;
80910;SDS011;70359;51.420;7.032;2023-11-19T07:59:05;3.3;;;2;;
80910;SDS011;70359;51.420;7.032;2023-11-19T08:01:30;3.3;;;2;;
80910;SDS011;70359;51.420;7.032;2023-11-19T08:03:56;4.4;;;1.8;;
80910;SDS011;70359;51.420;7.032;2023-11-19T08:06:20;4.4;;;1.8;;
80910;SDS011;70359;51.420;7.032;2023-11-19T08:08:49;3.4;;;1.9;;
80910;SDS011;70359;51.420;7.032;2023-11-19T08:11:10;3.4;;;1.9;;
80910;SDS011;70359;51.420;7.032;2023-11-19T08:13:35;3.4;;;1.9;;
80910;SDS011;70359;51.420;7.032;2023-11-19T08:16:00;3.2;;;1.7;;
80910;SDS011;70359;51.420;7.032;2023-11-19T08:18:25;3.2;;;1.7;;
80910;SDS011;70359;51.420;7.032;2023-11-19T08:20:50;3.9;;;1.7;;
80910;SDS011;70359;51.420;7.032;2023-11-19T08:23:15;3.9;;;1.7;;
80910;SDS011;70359;51.420;7.032;2023-11-19T08:25:40;3.1;;;1.8;;
80910;SDS011;70359;51.420;7.032;2023-11-19T08:28:05;3.1;;;1.8;;
80910;SDS011;70359;51.420;7.032;2023-11-19T08:30:34;3.9;;;1.8;;
80910;SDS011;70359;51.420;7.032;2023-11-19T08:32:55;3.9;;;1.8;;
80910;SDS011;70359;51.420;7.032;2023-11-19T08:35:20;4.1;;;1.9;;
80910;SDS011;70359;51.420;7.032;2023-11-19T08:37:45;4.1;;;1.9;;
80910;SDS011;70359;51.420;7.032;2023-11-19T08:40:11;4.4;;;1.9;;
80910;SDS011;70359;51.420;7.032;2023-11-19T08:42:35;4.4;;;1.9;;
80910;SDS011;70359;51.420;7.032;2023-11-19T08:45:00;6.4;;;2;;
80910;SDS011;70359;51.420;7.032;2023-11-19T08:47:29;6.4;;;2;;
80910;SDS011;70359;51.420;7.032;2023-11-19T08:49:50;2.7;;;1.8;;
80910;SDS011;70359;51.420;7.032;2023-11-19T08:52:15;2.7;;;1.8;;
80910;SDS011;70359;51.420;7.032;2023-11-19T08:54:42;5.6;;;2.3;;
80910;SDS011;70359;51.420;7.032;2023-11-19T08:57:05;5.6;;;2.3;;
80910;SDS011;70359;51.420;7.032;2023-11-19T08:59:30;3.4;;;1.8;;
80910;SDS011;70359;51.420;7.032;2023-11-19T09:01:55;3.4;;;1.8;;
80910;SDS011;70359;51.420;7.032;2023-11-19T09:04:20;3;;;1.9;;
80910;SDS011;70359;51.420;7.032;2023-11-19T09:06:45;3;;;1.9;;
80910;SDS011;70359;51.420;7.032;2023-11-19T09:09:11;4.8;;;2.2;;
80910;SDS011;70359;51.420;7.032;2023-11-19T09:11:35;4.8;;;2.2;;
80910;SDS011;70359;51.420;7.032;2023-11-19T09:14:00;4.8;;;1.7;;
80910;SDS011;70359;51.420;7.032;2023-11-19T09:16:25;4.8;;;1.7;;
80910;SDS011;70359;51.420;7.032;2023-11-19T09:18:54;3.6;;;1.9;;
80910;SDS011;70359;51.420;7.032;2023-11-19T09:21:15;3.6;;;1.9;;
80910;SDS011;70359;51.420;7.032;2023-11-19T09:23:40;3.6;;;1.9;;
80910;SDS011;70359;51.420;7.032;2023-11-19T09:26:06;4.9;;;1.9;;
80910;SDS011;70359;51.420;7.032;2023-11-19T09:28:31;4.9;;;1.9;;
80910;SDS011;70359;51.420;7.032;2023-11-19T09:30:55;4.2;;;2;;
80910;SDS011;70359;51.420;7.032;2023-11-19T09:33:20;4.2;;;2;;
80910;SDS011;70359;51.420;7.032;2023-11-19T09:35:45;4.7;;;2.1;;
80910;SDS011;70359;51.420;7.032;2023-11-19T09:38:10;4.7;;;2.1;;
80910;SDS011;70359;51.420;7.032;2023-11-19T09:40:39;5.1;;;2.3;;
80910;SDS011;70359;51.420;7.032;2023-11-19T09:43:00;5.1;;;2.3;;
80910;SDS011;70359;51.420;7.032;2023-11-19T09:45:27;4.2;;;2;;
80910;SDS011;70359;51.420;7.032;2023-11-19T09:47:51;4.2;;;2;;
80910;SDS011;70359;51.420;7.032;2023-11-19T09:50:17;3;;;1.9;;
80910;SDS011;70359;51.420;7.032;2023-11-19T09:52:40;3;;;1.9;;
80910;SDS011;70359;51.420;7.032;2023-11-19T09:55:06;5.1;;;2.2;;
80910;SDS011;70359;51.420;7.032;2023-11-19T09:57:35;5.1;;;2.2;;
80910;SDS011;70359;51.420;7.032;2023-11-19T09:59:55;3.7;;;1.9;;
80910;SDS011;70359;51.420;7.032;2023-11-19T10:02:21;3.7;;;1.9;;
80910;SDS011;70359;51.420;7.032;2023-11-19T10:04:46;6.5;;;2.3;;
80910;SDS011;70359;51.420;7.032;2023-11-19T10:07:10;6.5;;;2.3;;
80910;SDS011;70359;51.420;7.032;2023-11-19T10:09:35;4.9;;;2.2;;
80910;SDS011;70359;51.420;7.032;2023-11-19T10:12:00;4.9;;;2.2;;
80910;SDS011;70359;51.420;7.032;2023-11-19T10:14:27;6.5;;;2.4;;
80910;SDS011;70359;51.420;7.032;2023-11-19T10:16:54;6.5;;;2.4;;
80910;SDS011;70359;51.420;7.032;2023-11-19T10:19:18;7.9;;;2.6;;
80910;SDS011;70359;51.420;7.032;2023-11-19T10:21:41;7.9;;;2.6;;
80910;SDS011;70359;51.420;7.032;2023-11-19T10:24:06;2.7;;;1.7;;
80910;SDS011;70359;51.420;7.032;2023-11-19T10:26:35;2.7;;;1.7;;
80910;SDS011;70359;51.420;7.032;2023-11-19T10:28:56;3.6;;;2;;
80910;SDS011;70359;51.420;7.032;2023-11-19T10:31:21;3.6;;;2;;
80910;SDS011;70359;51.420;7.032;2023-11-19T10:33:46;3.6;;;2;;
80910;SDS011;70359;51.420;7.032;2023-11-19T10:36:11;5.5;;;2.5;;
80910;SDS011;70359;51.420;7.032;2023-11-19T10:38:40;5.5;;;2.5;;
80910;SDS011;70359;51.420;7.032;2023-11-19T10:41:04;5.8;;;2;;
80910;SDS011;70359;51.420;7.032;2023-11-19T10:43:25;5.8;;;2;;
80910;SDS011;70359;51.420;7.032;2023-11-19T10:45:51;4.8;;;2.2;;
80910;SDS011;70359;51.420;7.032;2023-11-19T10:48:16;4.8;;;2.2;;
80910;SDS011;70359;51.420;7.032;2023-11-19T10:50:42;4.3;;;1.8;;
80910;SDS011;70359;51.420;7.032;2023-11-19T10:53:07;4.3;;;1.8;;
80910;SDS011;70359;51.420;7.032;2023-11-19T10:55:32;3.3;;;1.9;;
80910;SDS011;70359;51.420;7.032;2023-11-19T10:57:58;3.3;;;1.9;;
80910;SDS011;70359;51.420;7.032;2023-11-19T11:00:21;7.1;;;2.4;;
80910;SDS011;70359;51.420;7.032;2023-11-19T11:02:54;7.1;;;2.4;;
80910;SDS011;70359;51.420;7.032;2023-11-19T11:05:16;3.4;;;1.7;;
80910;SDS011;70359;51.420;7.032;2023-11-19T11:07:36;3.4;;;1.7;;
80910;SDS011;70359;51.420;7.032;2023-11-19T11:10:01;3.7;;;1.9;;
80910;SDS011;70359;51.420;7.032;2023-11-19T11:12:26;3.7;;;1.9;;
80910;SDS011;70359;51.420;7.032;2023-11-19T11:14:56;7.6;;;2.9;;
80910;SDS011;70359;51.420;7.032;2023-11-19T11:17:17;7.6;;;2.9;;
80910;SDS011;70359;51.420;7.032;2023-11-19T11:19:45;3.9;;;2;;
80910;SDS011;70359;51.420;7.032;2023-11-19T11:22:06;3.9;;;2;;
80910;SDS011;70359;51.420;7.032;2023-11-19T11:24:41;2.3;;;1.8;;
80910;SDS011;70359;51.420;7.032;2023-11-19T11:27:16;2.3;;;1.8;;
80910;SDS011;70359;51.420;7.032;2023-11-19T11:29:26;12.5;;;2.1;;
80910;SDS011;70359;51.420;7.032;2023-11-19T11:31:53;12.5;;;2.1;;
80910;SDS011;70359;51.420;7.032;2023-11-19T11:34:28;2.3;;;1.7;;
80910;SDS011;70359;51.420;7.032;2023-11-19T11:36:43;2.3;;;1.7;;
80910;SDS011;70359;51.420;7.032;2023-11-19T11:39:01;5.6;;;2;;
80910;SDS011;70359;51.420;7.032;2023-11-19T11:41:26;5.6;;;2;;
80910;SDS011;70359;51.420;7.032;2023-11-19T11:43:52;2.3;;;1.8;;
80910;SDS011;70359;51.420;7.032;2023-11-19T11:48:47;2.3;;;1.8;;
80910;SDS011;70359;51.420;7.032;2023-11-19T11:51:06;11.9;;;2.4;;
80910;SDS011;70359;51.420;7.032;2023-11-19T11:53:34;11.9;;;2.4;;
80910;SDS011;70359;51.420;7.032;2023-11-19T11:55:57;4.7;;;1.8;;
80910;SDS011;70359;51.420;7.032;2023-11-19T11:58:21;4.7;;;1.8;;
80910;SDS011;70359;51.420;7.032;2023-11-19T12:00:47;6.7;;;2.3;;
80910;SDS011;70359;51.420;7.032;2023-11-19T12:03:15;6.7;;;2.3;;
80910;SDS011;70359;51.420;7.032;2023-11-19T12:05:38;2.7;;;1.6;;
80910;SDS011;70359;51.420;7.032;2023-11-19T12:08:02;2.7;;;1.6;;
80910;SDS011;70359;51.420;7.032;2023-11-19T12:10:26;3.6;;;1.7;;
80910;SDS011;70359;51.420;7.032;2023-11-19T12:12:52;3.6;;;1.7;;
80910;SDS011;70359;51.420;7.032;2023-11-19T12:15:16;4.3;;;1.7;;
80910;SDS011;70359;51.420;7.032;2023-11-19T12:17:42;4.3;;;1.7;;
80910;SDS011;70359;51.420;7.032;2023-11-19T12:20:06;2.6;;;1.6;;
80910;SDS011;70359;51.420;7.032;2023-11-19T12:22:31;2.6;;;1.6;;
80910;SDS011;70359;51.420;7.032;2023-11-19T12:24:56;3.6;;;1.6;;
80910;SDS011;70359;51.420;7.032;2023-11-19T12:27:21;3.6;;;1.6;;
80910;SDS011;70359;51.420;7.032;2023-11-19T12:29:46;3;;;1.7;;
80910;SDS011;70359;51.420;7.032;2023-11-19T12:32:11;3;;;1.7;;
80910;SDS011;70359;51.420;7.032;2023-11-19T12:34:36;5;;;2;;
80910;SDS011;70359;51.420;7.032;2023-11-19T12:37:03;5;;;2;;
80910;SDS011;70359;51.420;7.032;2023-11-19T12:39:29;4.7;;;2.1;;
80910;SDS011;70359;51.420;7.032;2023-11-19T12:41:54;4.7;;;2.1;;
80910;SDS011;70359;51.420;7.032;2023-11-19T12:44:16;2.6;;;1.7;;
80910;SDS011;70359;51.420;7.032;2023-11-19T12:46:41;2.6;;;1.7;;
80910;SDS011;70359;51.420;7.032;2023-11-19T12:49:06;2.1;;;1.5;;
80910;SDS011;70359;51.420;7.032;2023-11-19T12:51:34;2.1;;;1.5;;
80910;SDS011;70359;51.420;7.032;2023-11-19T12:53:56;3;;;1.6;;
80910;SDS011;70359;51.420;7.032;2023-11-19T12:56:21;3;;;1.6;;
80910;SDS011;70359;51.420;7.032;2023-11-19T12:58:50;3;;;1.6;;
80910;SDS011;70359;51.420;7.032;2023-11-19T13:01:15;2.4;;;1.4;;
80910;SDS011;70359;51.420;7.032;2023-11-19T13:03:37;2.4;;;1.4;;
80910;SDS011;70359;51.420;7.032;2023-11-19T13:06:06;6.2;;;1.9;;
80910;SDS011;70359;51.420;7.032;2023-11-19T13:08:26;6.2;;;1.9;;
80910;SDS011;70359;51.420;7.032;2023-11-19T13:10:53;5.6;;;1.7;;
80910;SDS011;70359;51.420;7.032;2023-11-19T13:13:16;5.6;;;1.7;;
80910;SDS011;70359;51.420;7.032;2023-11-19T13:15:45;1.7;;;1.2;;
80910;SDS011;70359;51.420;7.032;2023-11-19T13:18:06;1.7;;;1.2;;
80910;SDS011;70359;51.420;7.032;2023-11-19T13:20:31;3.9;;;1.5;;
80910;SDS011;70359;51.420;7.032;2023-11-19T13:23:00;3.9;;;1.5;;
80910;SDS011;70359;51.420;7.032;2023-11-19T13:25:21;6.2;;;1.5;;
80910;SDS011;70359;51.420;7.032;2023-11-19T13:27:46;6.2;;;1.5;;
80910;SDS011;70359;51.420;7.032;2023-11-19T13:30:12;3.8;;;1.7;;
80910;SDS011;70359;51.420;7.032;2023-11-19T13:32:36;3.8;;;1.7;;
80910;SDS011;70359;51.420;7.032;2023-11-19T13:35:01;1.5;;;1.3;;
80910;SDS011;70359;51.420;7.032;2023-11-19T13:37:27;1.5;;;1.3;;
80910;SDS011;70359;51.420;7.032;2023-11-19T13:39:51;3.6;;;1.8;;
80910;SDS011;70359;51.420;7.032;2023-11-19T13:42:16;3.6;;;1.8;;
80910;SDS011;70359;51.420;7.032;2023-11-19T13:44:41;3.7;;;1.7;;
80910;SDS011;70359;51.420;7.032;2023-11-19T13:47:06;3.7;;;1.7;;
80910;SDS011;70359;51.420;7.032;2023-11-19T13:49:31;21.4;;;2.3;;
80910;SDS011;70359;51.420;7.032;2023-11-19T13:51:56;21.4;;;2.3;;
80910;SDS011;70359;51.420;7.032;2023-11-19T13:54:21;4.1;;;1.7;;
80910;SDS011;70359;51.420;7.032;2023-11-19T13:56:46;4.1;;;1.7;;
80910;SDS011;70359;51.420;7.032;2023-11-19T13:59:11;2.1;;;1.5;;
80910;SDS011;70359;51.420;7.032;2023-11-19T14:01:36;2.1;;;1.5;;
80910;SDS011;70359;51.420;7.032;2023-11-19T14:04:01;2;;;1.4;;
80910;SDS011;70359;51.420;7.032;2023-11-19T14:06:26;2;;;1.4;;
80910;SDS011;70359;51.420;7.032;2023-11-19T14:08:51;2;;;1.4;;
80910;SDS011;70359;51.420;7.032;2023-11-19T14:11:16;4.2;;;1.7;;
80910;SDS011;70359;51.420;7.032;2023-11-19T14:13:41;4.2;;;1.7;;
80910;SDS011;70359;51.420;7.032;2023-11-19T14:16:07;4.5;;;1.9;;
80910;SDS011;70359;51.420;7.032;2023-11-19T14:18:32;4.5;;;1.9;;
80910;SDS011;70359;51.420;7.032;2023-11-19T14:20:56;3.1;;;1.8;;
80910;SDS011;70359;51.420;7.032;2023-11-19T14:23:25;3.1;;;1.8;;
80910;SDS011;70359;51.420;7.032;2023-11-19T14:25:46;3.4;;;1.7;;
80910;SDS011;70359;51.420;7.032;2023-11-19T14:28:11;3.4;;;1.7;;
80910;SDS011;70359;51.420;7.032;2023-11-19T14:30:36;3.9;;;1.6;;
80910;SDS011;70359;51.420;7.032;2023-11-19T14:33:01;3.9;;;1.6;;
80910;SDS011;70359;51.420;7.032;2023-11-19T14:35:26;3.1;;;1.5;;
80910;SDS011;70359;51.420;7.032;2023-11-19T14:37:55;3.1;;;1.5;;
80910;SDS011;70359;51.420;7.032;2023-11-19T14:40:16;2.6;;;1.3;;
80910;SDS011;70359;51.420;7.032;2023-11-19T14:42:42;2.6;;;1.3;;
80910;SDS011;70359;51.420;7.032;2023-11-19T14:45:07;3;;;1.8;;
80910;SDS011;70359;51.420;7.032;2023-11-19T14:47:31;3;;;1.8;;
80910;SDS011;70359;51.420;7.032;2023-11-19T14:50:00;3.4;;;1.8;;
80910;SDS011;70359;51.420;7.032;2023-11-19T14:52:21;3.4;;;1.8;;
80910;SDS011;70359;51.420;7.032;2023-11-19T14:54:50;1.8;;;1.1;;
80910;SDS011;70359;51.420;7.032;2023-11-19T14:57:11;1.8;;;1.1;;
80910;SDS011;70359;51.420;7.032;2023-11-19T14:59:37;5.7;;;1.8;;
80910;SDS011;70359;51.420;7.032;2023-11-19T15:02:01;5.7;;;1.8;;
80910;SDS011;70359;51.420;7.032;2023-11-19T15:04:26;2.5;;;1.5;;
80910;SDS011;70359;51.420;7.032;2023-11-19T15:06:51;2.5;;;1.5;;